Time;durP1;ratioP1;P1;durP2;ratioP2;P2;SDS_P1;SDS_P2;PMS_P1;PMS_P2;Temp;Humidity;BMP_temperature;BMP_pressure;BME280_temperature;BME280_humidity;BME280_pressure;Samples;Min_cycle;Max_cycle;Signal;HPM_P1;HPM_P2
2022/08/25 00:01:27;;;;;;;4.03;3.73;;;27.00;59.30;;;;;;5030239;28;20808;-72
2022/08/25 00:03:53;;;;;;;3.80;3.47;;;27.00;59.40;;;;;;5027980;28;20465;-74
2022/08/25 00:06:20;;;;;;;3.60;3.30;;;27.00;60.30;;;;;;5031836;28;20549;-72
2022/08/25 00:08:46;;;;;;;3.87;3.57;;;27.00;59.80;;;;;;5030044;28;20466;-74
2022/08/25 00:11:20;;;;;;;3.73;3.37;;;27.00;59.80;;;;;;5032759;28;20442;-74
2022/08/25 00:13:49;;;;;;;6.83;4.20;;;26.90;59.80;;;;;;5034590;28;20447;-74
2022/08/25 00:16:18;;;;;;;4.03;3.73;;;26.90;60.00;;;;;;5029207;28;20451;-72
2022/08/25 00:18:55;;;;;;;4.03;3.63;;;26.90;60.20;;;;;;5030469;28;20442;-73
2022/08/25 00:21:21;;;;;;;3.80;3.50;;;26.80;60.40;;;;;;5029227;28;21047;-71
2022/08/25 00:23:47;;;;;;;3.70;3.40;;;26.90;60.60;;;;;;5032024;28;20545;-71
2022/08/25 00:26:14;;;;;;;5.00;3.87;;;26.80;60.70;;;;;;5028725;28;20450;-71
2022/08/25 00:28:41;;;;;;;4.63;4.23;;;26.80;60.90;;;;;;5026720;28;20434;-72
2022/08/25 00:31:11;;;;;;;4.20;3.80;;;26.80;61.10;;;;;;5026185;28;20465;-72
2022/08/25 00:33:37;;;;;;;3.60;3.30;;;26.70;61.10;;;;;;5026938;28;20497;-72
2022/08/25 00:36:03;;;;;;;4.60;4.20;;;26.70;61.30;;;;;;5025915;28;20458;-72
2022/08/25 00:38:30;;;;;;;4.10;3.70;;;26.70;62.40;;;;;;5029378;28;20188;-74
2022/08/25 00:41:05;;;;;;;6.60;3.33;;;26.60;61.60;;;;;;5031601;28;20439;-74
2022/08/25 00:43:40;;;;;;;4.23;3.83;;;26.60;61.70;;;;;;5025490;28;20470;-75
2022/08/25 00:46:08;;;;;;;4.80;4.37;;;26.50;61.90;;;;;;5023651;28;20515;-73
2022/08/25 00:48:34;;;;;;;8.00;4.60;;;26.50;62.20;;;;;;5041157;28;20463;-74
2022/08/25 00:51:01;;;;;;;3.97;3.57;;;26.40;62.30;;;;;;5025715;28;20438;-74
2022/08/25 00:53:28;;;;;;;4.17;3.77;;;26.40;62.50;;;;;;4998779;28;20435;-74
2022/08/25 00:55:54;;;;;;;4.70;4.30;;;26.40;62.70;;;;;;5031167;28;20450;-74
2022/08/25 00:58:26;;;;;;;3.83;3.50;;;26.40;62.90;;;;;;5022397;28;20437;-74
2022/08/25 01:00:54;;;;;;;4.60;4.20;;;26.30;63.10;;;;;;5011311;28;20184;-73
2022/08/25 01:03:21;;;;;;;3.80;3.40;;;26.30;63.10;;;;;;5021261;28;20450;-74
2022/08/25 01:05:48;;;;;;;4.17;3.77;;;26.30;63.20;;;;;;5027004;28;21081;-72
2022/08/25 01:08:15;;;;;;;4.10;3.70;;;26.30;63.30;;;;;;5026505;28;20530;-75
2022/08/25 01:10:43;;;;;;;4.00;3.47;;;26.20;63.30;;;;;;5024047;28;20843;-74
2022/08/25 01:13:23;;;;;;;4.07;3.67;;;26.20;63.50;;;;;;5031239;28;20426;-73
2022/08/25 01:15:53;;;;;;;4.37;3.97;;;26.10;63.70;;;;;;5016416;28;21211;-72
2022/08/25 01:18:19;;;;;;;5.27;4.20;;;26.10;63.90;;;;;;5025164;28;20435;-73
2022/08/25 01:20:58;;;;;;;4.27;3.90;;;26.10;64.20;;;;;;5025008;28;20943;-73
2022/08/25 01:23:25;;;;;;;5.00;4.30;;;26.10;64.40;;;;;;5027715;28;20215;-74
2022/08/25 01:26:11;;;;;;;3.70;3.40;;;26.10;64.60;;;;;;5037450;28;20545;-74
2022/08/25 01:29:19;;;;;;;5.80;4.00;;;26.00;64.80;;;;;;5027500;28;20439;-74
2022/08/25 01:31:25;;;;;;;4.20;3.80;;;26.00;65.20;;;;;;5032667;28;20446;-74
2022/08/25 01:33:51;;;;;;;4.53;4.13;;;25.90;65.30;;;;;;5031988;28;20443;-73
2022/08/25 01:36:21;;;;;;;4.90;4.40;;;25.90;65.40;;;;;;5027883;28;20478;-76
2022/08/25 01:38:47;;;;;;;5.33;4.47;;;25.90;65.60;;;;;;5033595;28;20234;-72
2022/08/25 01:41:20;;;;;;;4.40;4.00;;;25.90;65.80;;;;;;5029087;28;20446;-73
2022/08/25 01:43:45;;;;;;;4.17;3.77;;;25.90;66.00;;;;;;5033351;28;20481;-75
2022/08/25 01:46:11;;;;;;;4.40;4.00;;;25.90;66.30;;;;;;5030852;28;20467;-72
2022/08/25 01:48:37;;;;;;;10.53;3.87;;;25.80;66.40;;;;;;5027869;28;20203;-71
2022/08/25 01:51:03;;;;;;;4.40;3.90;;;25.80;66.50;;;;;;5031179;28;20242;-72
2022/08/25 01:53:30;;;;;;;5.50;4.27;;;25.80;66.70;;;;;;5031693;28;20792;-74
2022/08/25 01:56:04;;;;;;;4.50;4.10;;;25.70;66.80;;;;;;5024973;28;20200;-73
2022/08/25 01:58:34;;;;;;;4.73;4.10;;;25.70;67.00;;;;;;5023698;28;20485;-73
2022/08/25 02:01:02;;;;;;;4.83;3.80;;;25.70;67.20;;;;;;5023890;28;21025;-73
2022/08/25 02:03:28;;;;;;;5.00;4.00;;;25.70;67.40;;;;;;5026113;28;20504;-73
2022/08/25 02:05:55;;;;;;;4.17;3.83;;;25.70;67.80;;;;;;5027013;28;20518;-74
2022/08/25 02:08:22;;;;;;;4.50;4.10;;;25.60;67.70;;;;;;5022239;28;20477;-75
2022/08/25 02:10:48;;;;;;;4.87;4.37;;;25.60;68.00;;;;;;5024341;28;20496;-75
2022/08/25 02:13:14;;;;;;;4.70;3.63;;;25.60;68.10;;;;;;5022864;28;20512;-73
2022/08/25 02:15:51;;;;;;;4.27;3.87;;;25.60;68.20;;;;;;5024596;28;20471;-74
2022/08/25 02:18:18;;;;;;;4.60;4.20;;;25.50;68.50;;;;;;5023080;28;20529;-74
2022/08/25 02:20:44;;;;;;;4.37;4.00;;;25.50;68.70;;;;;;5022536;28;20930;-75
2022/08/25 02:23:10;;;;;;;4.20;3.90;;;25.50;69.10;;;;;;5022922;28;21033;-74
2022/08/25 02:25:38;;;;;;;4.27;3.60;;;25.50;69.00;;;;;;5027606;28;20875;-74
2022/08/25 02:28:05;;;;;;;4.00;3.70;;;25.50;69.10;;;;;;5024339;28;20439;-74
2022/08/25 02:30:31;;;;;;;4.73;4.20;;;25.50;69.50;;;;;;5025856;28;20933;-74
2022/08/25 02:32:57;;;;;;;4.10;3.80;;;25.40;69.70;;;;;;5020236;28;20928;-74
2022/08/25 02:35:22;;;;;;;6.57;3.90;;;25.50;69.80;;;;;;5023392;28;20478;-73
2022/08/25 02:37:50;;;;;;;4.63;4.23;;;25.40;69.80;;;;;;5026233;28;20830;-74
2022/08/25 02:40:16;;;;;;;5.47;3.97;;;25.40;70.40;;;;;;5024509;28;20203;-73
2022/08/25 02:42:43;;;;;;;4.43;4.00;;;25.40;70.20;;;;;;5026034;28;20977;-73
2022/08/25 02:45:09;;;;;;;4.23;3.83;;;25.40;70.30;;;;;;5021993;28;20214;-73
2022/08/25 02:47:35;;;;;;;4.70;4.20;;;25.30;70.70;;;;;;5025668;28;20435;-72
2022/08/25 02:50:03;;;;;;;4.30;3.90;;;25.20;71.10;;;;;;5023892;28;20204;-72
2022/08/25 02:52:29;;;;;;;5.37;4.33;;;25.20;71.30;;;;;;5023622;28;20494;-72
2022/08/25 02:54:54;;;;;;;4.73;4.33;;;25.20;71.50;;;;;;5026328;28;20743;-72
2022/08/25 02:57:20;;;;;;;4.77;4.37;;;25.20;71.60;;;;;;5019115;28;20246;-72
2022/08/25 02:59:47;;;;;;;4.53;4.10;;;25.20;71.70;;;;;;5030287;28;20180;-73
2022/08/25 03:02:14;;;;;;;4.23;3.93;;;25.20;71.80;;;;;;5019412;28;20204;-73
2022/08/25 03:04:39;;;;;;;4.90;4.50;;;25.20;71.80;;;;;;5020138;28;20443;-73
2022/08/25 03:07:05;;;;;;;5.40;4.40;;;25.10;72.00;;;;;;5025390;28;20520;-74
2022/08/25 03:09:31;;;;;;;4.57;4.17;;;25.10;72.00;;;;;;5024669;28;20180;-73
2022/08/25 03:11:56;;;;;;;4.90;4.50;;;25.10;72.40;;;;;;5026760;28;20287;-74
2022/08/25 03:14:22;;;;;;;7.10;4.40;;;25.10;72.50;;;;;;5020082;28;20216;-73
2022/08/25 03:16:48;;;;;;;5.00;4.50;;;25.10;72.70;;;;;;5020822;28;20196;-72
2022/08/25 03:19:14;;;;;;;5.50;4.33;;;25.00;72.70;;;;;;5019050;28;20532;-73
2022/08/25 03:21:39;;;;;;;4.60;4.20;;;25.00;73.10;;;;;;5020276;28;20271;-74
2022/08/25 03:24:06;;;;;;;8.00;4.67;;;25.00;73.60;;;;;;5018801;28;20199;-73
2022/08/25 03:29:17;;;;;;;5.03;4.53;;;24.90;73.80;;;;;;5020829;28;20515;-75
2022/08/25 03:31:44;;;;;;;4.77;4.30;;;24.90;74.10;;;;;;5021204;28;20537;-75
2022/08/25 03:34:15;;;;;;;6.23;4.60;;;24.90;74.00;;;;;;5021081;28;21179;-74
2022/08/25 03:36:41;;;;;;;7.97;4.20;;;24.90;73.90;;;;;;5018332;28;20458;-74
2022/08/25 03:39:07;;;;;;;4.50;4.10;;;24.90;73.90;;;;;;5021480;28;20470;-73
2022/08/25 03:41:33;;;;;;;5.30;4.30;;;24.90;74.10;;;;;;5023627;28;20185;-72
2022/08/25 03:44:00;;;;;;;5.03;4.53;;;24.90;74.30;;;;;;5025605;28;20462;-76
2022/08/25 03:46:32;;;;;;;4.50;4.10;;;24.90;74.40;;;;;;5021626;28;20573;-77
2022/08/25 03:49:00;;;;;;;4.60;3.90;;;24.80;74.60;;;;;;5021123;28;20426;-73
2022/08/25 03:51:39;;;;;;;5.10;4.20;;;24.80;74.80;;;;;;5024701;28;20481;-75
2022/08/25 03:54:07;;;;;;;5.40;4.00;;;24.80;74.60;;;;;;5023597;28;20476;-74
2022/08/25 03:56:32;;;;;;;4.67;4.27;;;24.70;74.80;;;;;;5020748;28;20561;-72
2022/08/25 03:58:58;;;;;;;6.97;4.80;;;24.70;74.90;;;;;;5021046;28;20529;-75
2022/08/25 04:01:24;;;;;;;4.60;4.20;;;24.60;75.20;;;;;;5019953;28;20656;-75
2022/08/25 04:03:50;;;;;;;5.07;4.57;;;24.60;75.30;;;;;;5022108;28;20180;-75
2022/08/25 04:06:17;;;;;;;4.40;4.03;;;24.50;75.50;;;;;;5024272;28;20517;-75
2022/08/25 04:08:43;;;;;;;5.00;4.60;;;24.50;75.80;;;;;;5025099;28;20192;-74
2022/08/25 04:11:16;;;;;;;5.40;4.90;;;24.50;75.90;;;;;;5026831;28;20446;-74
2022/08/25 04:13:44;;;;;;;4.90;4.30;;;24.40;76.20;;;;;;5025283;28;21194;-75
2022/08/25 04:16:15;;;;;;;5.30;4.80;;;24.40;76.60;;;;;;5023820;28;21016;-73
2022/08/25 04:18:42;;;;;;;5.07;4.67;;;24.40;77.00;;;;;;5023290;28;20813;-74
2022/08/25 04:21:09;;;;;;;6.00;4.80;;;24.30;77.30;;;;;;5027086;28;20448;-74
2022/08/25 04:23:36;;;;;;;5.80;5.20;;;24.30;77.60;;;;;;5027069;28;20462;-74
2022/08/25 04:26:07;;;;;;;4.73;4.33;;;24.30;77.70;;;;;;5026747;28;20467;-73
2022/08/25 04:28:32;;;;;;;4.83;4.30;;;24.30;78.30;;;;;;5029287;28;20489;-75
2022/08/25 04:30:58;;;;;;;8.97;5.37;;;24.20;78.00;;;;;;5025942;28;20441;-75
2022/08/25 04:33:24;;;;;;;5.97;5.27;;;24.20;78.30;;;;;;5025137;28;20183;-72
2022/08/25 04:35:49;;;;;;;5.00;4.60;;;24.10;78.60;;;;;;5023685;28;20801;-72
2022/08/25 04:38:16;;;;;;;4.63;4.23;;;24.10;78.80;;;;;;5021583;28;20224;-73
2022/08/25 04:40:42;;;;;;;4.77;4.37;;;24.10;79.30;;;;;;5022610;28;20263;-72
2022/08/25 04:43:07;;;;;;;7.90;5.20;;;24.10;79.50;;;;;;5022274;28;20819;-71
2022/08/25 04:45:38;;;;;;;5.40;4.90;;;24.10;79.70;;;;;;5023169;28;20449;-76
2022/08/25 04:48:04;;;;;;;5.47;5.00;;;24.10;79.90;;;;;;5028264;28;20389;-73
2022/08/25 04:50:29;;;;;;;6.20;4.50;;;24.10;79.90;;;;;;5025160;28;20479;-73
2022/08/25 04:52:55;;;;;;;11.33;5.37;;;24.10;80.00;;;;;;5021360;28;20542;-74
2022/08/25 04:55:21;;;;;;;5.53;4.90;;;24.10;80.20;;;;;;5025412;28;20215;-75
2022/08/25 04:57:47;;;;;;;5.30;4.80;;;24.10;80.20;;;;;;5028188;28;20726;-73
2022/08/25 05:00:13;;;;;;;4.70;4.30;;;24.10;80.30;;;;;;5023187;28;20181;-74
2022/08/25 05:02:39;;;;;;;5.33;4.77;;;24.10;80.50;;;;;;5024764;28;20442;-74
2022/08/25 05:05:05;;;;;;;6.30;5.23;;;24.10;80.90;;;;;;5025051;28;20928;-74
2022/08/25 05:07:31;;;;;;;9.03;6.17;;;24.00;80.90;;;;;;5029122;28;20206;-72
2022/08/25 05:09:56;;;;;;;12.53;7.27;;;24.00;81.10;;;;;;5028310;28;20443;-73
2022/08/25 05:12:22;;;;;;;5.93;5.30;;;24.00;81.50;;;;;;5024102;28;20607;-73
2022/08/25 05:14:51;;;;;;;6.83;5.60;;;24.00;81.80;;;;;;5031072;28;20227;-73
2022/08/25 05:17:17;;;;;;;5.70;5.00;;;24.00;82.10;;;;;;5030922;28;20207;-73
2022/08/25 05:19:43;;;;;;;5.73;5.23;;;24.00;82.40;;;;;;5024531;28;20944;-75
2022/08/25 05:22:09;;;;;;;7.53;4.73;;;24.00;82.70;;;;;;5026702;28;20433;-75
2022/08/25 05:24:34;;;;;;;8.83;4.90;;;23.90;82.90;;;;;;5027343;28;20196;-73
2022/08/25 05:27:02;;;;;;;8.63;5.23;;;23.90;83.20;;;;;;5024227;28;20252;-74
2022/08/25 05:29:27;;;;;;;5.63;5.03;;;23.90;83.70;;;;;;5026704;28;20180;-74
2022/08/25 05:31:53;;;;;;;5.50;4.97;;;23.90;83.90;;;;;;5026567;28;21159;-74
2022/08/25 05:34:19;;;;;;;6.67;5.20;;;23.90;84.10;;;;;;5021748;28;20204;-76
2022/08/25 05:36:45;;;;;;;8.40;6.63;;;23.90;84.30;;;;;;5024735;28;20386;-74
2022/08/25 05:39:11;;;;;;;7.27;5.77;;;24.00;84.50;;;;;;5023412;28;20191;-74
2022/08/25 05:41:37;;;;;;;6.00;5.10;;;24.00;84.80;;;;;;5024219;28;20431;-74
2022/08/25 05:44:03;;;;;;;5.97;5.47;;;24.00;85.00;;;;;;5020897;28;20237;-74
2022/08/25 05:46:29;;;;;;;5.50;5.00;;;24.00;85.10;;;;;;5028036;28;20470;-74
2022/08/25 05:48:54;;;;;;;5.97;5.40;;;24.00;85.20;;;;;;5023813;28;20184;-74
2022/08/25 05:51:20;;;;;;;21.73;6.53;;;24.00;85.40;;;;;;5028620;28;20688;-75
2022/08/25 05:53:49;;;;;;;7.00;5.80;;;24.00;85.60;;;;;;5037440;28;20208;-75
2022/08/25 05:56:16;;;;;;;6.10;5.50;;;24.10;85.80;;;;;;5023164;28;20446;-74
2022/08/25 05:58:43;;;;;;;6.93;5.70;;;24.10;86.00;;;;;;5030073;28;20463;-74
2022/08/25 06:04:01;;;;;;;6.70;6.10;;;24.00;86.60;;;;;;5021163;28;20560;-73
2022/08/25 06:06:27;;;;;;;11.83;6.10;;;24.10;87.00;;;;;;5026923;28;20569;-74
2022/08/25 06:08:53;;;;;;;6.80;5.73;;;24.10;87.20;;;;;;5031144;28;20698;-74
2022/08/25 06:11:19;;;;;;;5.93;5.40;;;24.10;87.30;;;;;;5026285;28;20195;-75
2022/08/25 06:13:44;;;;;;;5.80;5.40;;;24.10;87.50;;;;;;5027586;28;20258;-75
2022/08/25 06:16:10;;;;;;;5.93;5.33;;;24.10;87.70;;;;;;5027255;28;21443;-75
2022/08/25 06:18:36;;;;;;;6.50;5.90;;;24.20;88.10;;;;;;5026491;28;20192;-75
2022/08/25 06:21:12;;;;;;;6.33;5.73;;;24.20;88.20;;;;;;5024552;28;20487;-75
2022/08/25 06:23:38;;;;;;;6.73;5.47;;;24.20;88.30;;;;;;5022682;28;20178;-75
2022/08/25 06:26:04;;;;;;;7.73;6.30;;;24.30;88.50;;;;;;5025330;28;20980;-75
2022/08/25 06:28:30;;;;;;;8.20;5.73;;;24.30;88.60;;;;;;5029284;28;20572;-76
2022/08/25 06:31:00;;;;;;;7.43;6.27;;;24.30;88.70;;;;;;5028007;28;20961;-75
2022/08/25 06:33:26;;;;;;;7.43;5.80;;;24.30;88.90;;;;;;5023673;28;20276;-73
2022/08/25 06:35:55;;;;;;;6.30;5.70;;;24.40;90.00;;;;;;5022287;28;20455;-72
2022/08/25 06:38:21;;;;;;;7.90;5.50;;;24.40;89.30;;;;;;5024381;28;21184;-72
2022/08/25 06:40:47;;;;;;;5.83;5.33;;;24.40;89.60;;;;;;5025930;28;20445;-73
2022/08/25 06:43:14;;;;;;;8.73;5.60;;;24.40;89.70;;;;;;5022770;28;20849;-74
2022/08/25 06:45:40;;;;;;;6.40;5.80;;;24.50;89.80;;;;;;5025817;28;20485;-74
2022/08/25 06:48:06;;;;;;;7.03;6.33;;;24.50;89.90;;;;;;5027841;28;20436;-74
2022/08/25 06:50:31;;;;;;;7.20;6.50;;;24.60;90.00;;;;;;5019781;28;20456;-76
2022/08/25 06:52:57;;;;;;;5.90;5.40;;;24.60;90.00;;;;;;5027361;28;20262;-74
2022/08/25 06:55:23;;;;;;;6.77;5.83;;;24.60;90.00;;;;;;5025973;28;20219;-73
2022/08/25 06:57:52;;;;;;;8.30;5.87;;;24.70;90.00;;;;;;5019871;28;20188;-73
2022/08/25 07:00:18;;;;;;;7.33;6.10;;;24.70;90.10;;;;;;5025217;28;20221;-72
2022/08/25 07:02:44;;;;;;;6.27;5.70;;;24.70;90.00;;;;;;5024367;28;20923;-72
2022/08/25 07:05:09;;;;;;;6.37;5.80;;;24.80;90.10;;;;;;5027203;28;20203;-71
2022/08/25 07:07:36;;;;;;;6.70;6.10;;;24.80;90.20;;;;;;5019836;28;20188;-72
2022/08/25 07:10:02;;;;;;;6.90;6.03;;;24.80;90.20;;;;;;5021823;28;20258;-71
2022/08/25 07:12:28;;;;;;;6.37;5.70;;;24.90;90.40;;;;;;5024817;28;20445;-72
2022/08/25 07:14:54;;;;;;;9.73;5.93;;;24.90;90.40;;;;;;5029300;28;20458;-75
2022/08/25 07:17:22;;;;;;;7.70;6.73;;;24.90;90.40;;;;;;5026256;28;20234;-75
2022/08/25 07:19:48;;;;;;;8.80;6.00;;;25.00;90.40;;;;;;5025843;28;20188;-73
2022/08/25 07:22:14;;;;;;;7.93;6.20;;;25.00;90.40;;;;;;5022402;28;20435;-70
2022/08/25 07:24:39;;;;;;;7.30;6.20;;;25.10;90.40;;;;;;5022654;28;20442;-72
2022/08/25 07:27:08;;;;;;;8.20;6.17;;;25.10;90.40;;;;;;5020535;28;20238;-70
2022/08/25 07:29:37;;;;;;;9.17;6.27;;;25.20;90.40;;;;;;5014913;28;20195;-71
2022/08/25 07:32:04;;;;;;;8.80;7.10;;;25.20;90.40;;;;;;5025934;28;20450;-71
2022/08/25 07:37:14;;;;;;;10.30;6.60;;;25.30;90.50;;;;;;5025001;28;20464;-72
2022/08/25 07:39:40;;;;;;;10.53;6.33;;;25.30;90.40;;;;;;5029782;28;20956;-70
2022/08/25 07:42:06;;;;;;;8.23;7.43;;;25.40;90.50;;;;;;5030091;28;20180;-71
2022/08/25 07:44:31;;;;;;;7.80;6.93;;;25.40;90.40;;;;;;5044497;28;20256;-70
2022/08/25 07:46:57;;;;;;;8.07;7.27;;;25.50;90.40;;;;;;5028018;28;20203;-71
2022/08/25 07:49:25;;;;;;;12.83;9.93;;;25.50;90.30;;;;;;5024556;28;20655;-70
2022/08/25 07:51:52;;;;;;;9.03;7.33;;;25.60;90.70;;;;;;5032447;28;20683;-71
2022/08/25 07:54:18;;;;;;;7.30;6.70;;;25.60;90.40;;;;;;5032740;28;22261;-71
2022/08/25 07:56:44;;;;;;;11.23;8.60;;;25.70;90.30;;;;;;5029877;28;20450;-71
2022/08/25 07:59:10;;;;;;;9.10;8.30;;;25.80;90.20;;;;;;5038030;28;20459;-71
2022/08/25 08:01:36;;;;;;;7.30;6.70;;;25.80;90.10;;;;;;5035304;28;20208;-70
2022/08/25 08:04:02;;;;;;;9.13;8.30;;;25.90;90.10;;;;;;5031987;28;20200;-71
2022/08/25 08:06:28;;;;;;;14.13;12.87;;;25.90;90.00;;;;;;5033846;28;20449;-71
2022/08/25 08:08:54;;;;;;;11.50;10.40;;;25.90;89.90;;;;;;5040686;28;20434;-72
2022/08/25 08:11:22;;;;;;;7.90;7.10;;;26.00;90.00;;;;;;5036386;28;20184;-71
2022/08/25 08:13:48;;;;;;;8.43;7.07;;;26.00;89.90;;;;;;5043527;28;20442;-71
2022/08/25 08:16:16;;;;;;;8.30;7.37;;;26.10;89.70;;;;;;5036338;28;20458;-72
2022/08/25 08:18:43;;;;;;;7.00;6.40;;;26.20;89.60;;;;;;5038012;28;20465;-71
2022/08/25 08:21:25;;;;;;;10.10;9.20;;;26.20;89.60;;;;;;5031432;28;20937;-71
2022/08/25 08:23:52;;;;;;;9.13;8.23;;;26.30;89.50;;;;;;5040209;28;20944;-72
2022/08/25 08:26:18;;;;;;;10.27;8.73;;;26.30;89.10;;;;;;5032756;28;20466;-71
2022/08/25 08:28:44;;;;;;;7.37;6.67;;;26.40;88.60;;;;;;5038848;28;20795;-72
2022/08/25 08:31:10;;;;;;;8.70;7.87;;;26.50;88.10;;;;;;5037761;28;20373;-72
2022/08/25 08:33:36;;;;;;;7.60;6.80;;;26.50;87.70;;;;;;5040463;28;20262;-71
2022/08/25 08:36:08;;;;;;;14.23;12.83;;;26.60;87.20;;;;;;5041050;28;20450;-71
2022/08/25 08:38:35;;;;;;;10.87;7.50;;;26.70;86.90;;;;;;5041332;28;20480;-71
2022/08/25 08:44:25;;;;;;;9.90;6.80;;;26.80;86.30;;;;;;5040167;28;20428;-72
2022/08/25 08:47:12;;;;;;;7.30;6.60;;;26.90;85.30;;;;;;5037731;28;20903;-71
2022/08/25 08:50:02;;;;;;;8.63;6.07;;;26.90;85.10;;;;;;5036268;28;20457;-71
2022/08/25 08:52:43;;;;;;;10.20;6.50;;;27.00;84.60;;;;;;5038153;28;20967;-72
2022/08/25 08:55:35;;;;;;;6.50;5.90;;;27.10;84.00;;;;;;5036718;28;20465;-72
2022/08/25 08:58:09;;;;;;;6.50;5.90;;;27.20;83.60;;;;;;5033476;28;20422;-72
2022/08/25 09:00:40;;;;;;;6.90;6.30;;;27.20;83.30;;;;;;5046951;28;20471;-71
2022/08/25 09:03:10;;;;;;;7.10;6.40;;;27.30;83.20;;;;;;5039679;28;21116;-72
2022/08/25 09:05:47;;;;;;;6.30;5.70;;;27.30;82.00;;;;;;5036661;28;20452;-72
2022/08/25 09:08:13;;;;;;;6.33;5.80;;;27.40;81.60;;;;;;5044820;28;20452;-72
2022/08/25 09:10:56;;;;;;;5.67;5.13;;;27.50;80.60;;;;;;5041450;28;20964;-71
2022/08/25 09:13:31;;;;;;;8.93;7.33;;;27.50;80.50;;;;;;5038680;28;20806;-71
2022/08/25 09:19:18;;;;;;;8.37;5.77;;;27.60;80.70;;;;;;5034522;28;20855;-72
2022/08/25 09:21:58;;;;;;;8.17;6.30;;;27.70;80.20;;;;;;5037839;28;20459;-70
2022/08/25 09:24:53;;;;;;;6.83;6.13;;;27.80;79.40;;;;;;5035876;28;20439;-71
2022/08/25 09:27:48;;;;;;;6.50;5.73;;;27.90;78.90;;;;;;5024930;28;21120;-71
2022/08/25 09:30:19;;;;;;;6.60;6.00;;;27.90;78.50;;;;;;5037875;28;20502;-70
2022/08/25 09:32:48;;;;;;;6.30;5.60;;;28.00;78.20;;;;;;5040807;28;20432;-71
2022/08/25 09:35:25;;;;;;;8.80;5.67;;;28.10;77.60;;;;;;5043269;28;21275;-71
2022/08/25 09:38:04;;;;;;;6.77;5.33;;;28.10;77.20;;;;;;5039278;28;20522;-71
2022/08/25 09:40:45;;;;;;;6.23;5.60;;;28.20;76.30;;;;;;5037266;28;20414;-71
2022/08/25 09:43:31;;;;;;;5.90;5.40;;;28.30;74.80;;;;;;5030503;28;20440;-71
2022/08/25 09:46:08;;;;;;;6.43;5.77;;;28.40;74.10;;;;;;5037323;28;21028;-71
2022/08/25 09:48:46;;;;;;;8.50;5.87;;;28.50;73.30;;;;;;5040509;28;20437;-71
2022/08/25 09:51:22;;;;;;;7.67;5.50;;;28.50;73.30;;;;;;5041647;28;20579;-71
2022/08/25 09:53:58;;;;;;;8.97;5.30;;;28.60;72.30;;;;;;5035862;28;20437;-71
2022/08/25 09:56:30;;;;;;;5.87;5.20;;;28.70;71.40;;;;;;5043517;28;20444;-71
2022/08/25 09:59:21;;;;;;;5.70;5.20;;;28.70;70.70;;;;;;5043496;28;20558;-72
2022/08/25 10:01:52;;;;;;;6.00;5.50;;;28.70;69.50;;;;;;5038523;28;20440;-72
2022/08/25 10:04:31;;;;;;;5.57;5.07;;;28.80;68.70;;;;;;5036418;28;20520;-72
2022/08/25 10:06:59;;;;;;;5.20;4.70;;;28.80;68.70;;;;;;5035553;28;20524;-71
2022/08/25 10:09:33;;;;;;;5.63;5.13;;;28.90;68.60;;;;;;5041158;28;20418;-72
2022/08/25 10:12:01;;;;;;;5.17;4.67;;;28.90;67.80;;;;;;5032999;28;20469;-72
2022/08/25 10:14:31;;;;;;;6.83;6.23;;;29.00;66.90;;;;;;5037852;28;20471;-73
2022/08/25 10:17:25;;;;;;;6.13;5.53;;;29.00;66.60;;;;;;5038594;28;21171;-73
2022/08/25 10:20:12;;;;;;;6.90;5.87;;;29.10;67.10;;;;;;5045225;28;20422;-72
2022/08/25 10:22:41;;;;;;;6.97;6.27;;;29.10;67.20;;;;;;5037777;28;20833;-72
2022/08/25 10:25:09;;;;;;;6.13;5.53;;;29.20;67.20;;;;;;5038222;28;20521;-71
2022/08/25 10:27:51;;;;;;;7.13;6.53;;;29.20;66.30;;;;;;5041342;28;20437;-71
2022/08/25 10:30:44;;;;;;;6.53;5.80;;;29.30;66.10;;;;;;5035027;28;20433;-71
2022/08/25 10:33:29;;;;;;;6.73;6.03;;;29.30;65.80;;;;;;5038718;28;20438;-71
2022/08/25 10:36:07;;;;;;;5.90;5.40;;;29.40;65.50;;;;;;5041071;28;20465;-71
2022/08/25 10:38:55;;;;;;;5.97;5.47;;;29.50;65.50;;;;;;5035842;28;21158;-72
2022/08/25 10:42:25;;;;;;;7.30;6.60;;;29.50;65.10;;;;;;5037117;28;20433;-72
2022/08/25 10:45:41;;;;;;;5.87;5.40;;;29.60;65.10;;;;;;5017872;28;20548;-72
2022/08/25 10:48:16;;;;;;;7.77;6.97;;;29.60;64.70;;;;;;5037345;28;20436;-72
2022/08/25 10:50:49;;;;;;;6.30;5.80;;;29.70;64.30;;;;;;5034805;28;21024;-71
2022/08/25 10:53:33;;;;;;;7.47;6.10;;;29.70;64.20;;;;;;5040938;28;20853;-71
2022/08/25 10:56:19;;;;;;;6.63;5.50;;;29.70;63.80;;;;;;5040893;28;20543;-71
2022/08/25 10:59:06;;;;;;;6.87;5.90;;;29.80;64.20;;;;;;5034986;28;20410;-73
2022/08/25 11:01:46;;;;;;;8.77;6.20;;;29.80;64.10;;;;;;5036239;28;20426;-71
2022/08/25 11:04:25;;;;;;;7.93;7.17;;;29.90;64.00;;;;;;5040141;28;20458;-71
2022/08/25 11:07:10;;;;;;;7.10;6.13;;;29.90;64.00;;;;;;5040962;28;20437;-71
2022/08/25 11:09:40;;;;;;;8.90;5.47;;;30.00;63.50;;;;;;5029439;28;20585;-72
2022/08/25 11:12:34;;;;;;;6.40;5.80;;;30.00;62.90;;;;;;5033092;28;20450;-72
2022/08/25 11:15:10;;;;;;;6.57;5.87;;;30.10;62.50;;;;;;5041107;28;20473;-73
2022/08/25 11:18:01;;;;;;;6.87;6.27;;;30.20;62.20;;;;;;5038828;28;20413;-73
2022/08/25 11:20:36;;;;;;;6.53;5.93;;;30.30;62.30;;;;;;5032382;28;20438;-73
2022/08/25 11:23:20;;;;;;;6.77;5.87;;;30.40;62.20;;;;;;5044132;28;20437;-72
2022/08/25 11:26:00;;;;;;;5.57;5.07;;;30.40;61.70;;;;;;5030058;28;20533;-71
2022/08/25 11:28:29;;;;;;;6.67;6.17;;;30.60;61.30;;;;;;5040010;28;20421;-72
2022/08/25 11:30:58;;;;;;;5.70;5.20;;;30.60;60.50;;;;;;5032996;28;20442;-72
2022/08/25 11:33:26;;;;;;;6.43;5.83;;;30.70;59.90;;;;;;5038403;28;20493;-72
2022/08/25 11:36:00;;;;;;;6.40;5.70;;;30.80;59.60;;;;;;5038641;28;20540;-71
2022/08/25 11:39:03;;;;;;;5.77;5.27;;;30.80;59.40;;;;;;5041744;28;20426;-72
2022/08/25 11:41:39;;;;;;;6.70;5.30;;;30.90;59.40;;;;;;5039595;28;20389;-71
2022/08/25 11:44:26;;;;;;;5.70;5.10;;;31.00;59.30;;;;;;5021161;28;20445;-71
2022/08/25 11:47:27;;;;;;;7.43;5.37;;;31.10;59.10;;;;;;5039579;28;20490;-71
2022/08/25 11:49:52;;;;;;;9.60;5.37;;;31.30;58.40;;;;;;5040822;28;20467;-72
2022/08/25 11:52:33;;;;;;;6.57;5.80;;;31.40;58.30;;;;;;5045620;28;21004;-69
2022/08/25 11:55:04;;;;;;;5.97;5.43;;;31.60;58.10;;;;;;5042471;28;20202;-71
2022/08/25 11:57:31;;;;;;;6.30;5.13;;;31.80;57.80;;;;;;5042788;28;20445;-70
2022/08/25 12:00:27;;;;;;;6.70;5.50;;;31.90;57.50;;;;;;5039917;28;20429;-71
2022/08/25 12:02:53;;;;;;;5.50;5.00;;;32.20;57.30;;;;;;5037434;28;20439;-70
2022/08/25 12:05:20;;;;;;;5.13;4.30;;;32.50;56.40;;;;;;5036391;28;20967;-70
2022/08/25 12:07:48;;;;;;;5.80;5.30;;;32.80;55.70;;;;;;5047187;28;20236;-69
2022/08/25 12:10:23;;;;;;;5.83;5.33;;;33.20;54.90;;;;;;5037078;28;20410;-71
2022/08/25 12:12:55;;;;;;;6.43;5.83;;;33.80;54.10;;;;;;5031041;28;20512;-72
2022/08/25 12:15:29;;;;;;;5.20;4.40;;;34.30;53.20;;;;;;5028341;28;21144;-70
2022/08/25 12:18:12;;;;;;;5.10;4.70;;;35.20;52.60;;;;;;5029364;28;20463;-71
2022/08/25 12:20:55;;;;;;;6.93;5.07;;;36.30;50.90;;;;;;5031410;28;20416;-70
2022/08/25 12:23:41;;;;;;;5.20;4.80;;;37.10;50.00;;;;;;5029098;28;20518;-70
2022/08/25 12:26:32;;;;;;;5.27;4.87;;;37.70;48.00;;;;;;5036915;28;20496;-71
2022/08/25 12:29:14;;;;;;;5.10;4.70;;;38.00;45.70;;;;;;5035888;28;20975;-70
2022/08/25 12:31:41;;;;;;;6.20;4.67;;;38.30;45.70;;;;;;5035542;28;20443;-71
2022/08/25 12:34:16;;;;;;;10.33;6.00;;;38.50;45.30;;;;;;5046313;28;20456;-71
2022/08/25 12:36:58;;;;;;;6.07;4.37;;;38.80;44.20;;;;;;5034406;28;20461;-70
2022/08/25 12:39:34;;;;;;;8.37;5.43;;;39.10;43.80;;;;;;5038560;28;20433;-71
2022/08/25 12:42:06;;;;;;;5.30;4.90;;;39.30;43.30;;;;;;5041549;28;21161;-72
2022/08/25 12:44:46;;;;;;;5.70;5.20;;;39.60;42.70;;;;;;5047071;28;20449;-71
2022/08/25 12:47:18;;;;;;;5.13;4.63;;;39.80;42.30;;;;;;5043616;28;20457;-71
2022/08/25 12:49:44;;;;;;;6.30;5.80;;;40.10;42.30;;;;;;5038485;28;20470;-71
2022/08/25 12:52:20;;;;;;;5.57;5.07;;;40.00;41.80;;;;;;5038250;28;20962;-71
2022/08/25 12:54:57;;;;;;;5.30;4.90;;;40.30;41.70;;;;;;5042410;28;20529;-71
2022/08/25 12:57:40;;;;;;;6.23;5.63;;;40.50;40.80;;;;;;5026753;28;20449;-71
2022/08/25 13:00:36;;;;;;;4.97;4.57;;;40.60;40.10;;;;;;5035475;28;20585;-71
2022/08/25 13:03:29;;;;;;;5.93;5.00;;;40.80;40.00;;;;;;5034017;28;21223;-71
2022/08/25 13:06:04;;;;;;;5.63;5.00;;;40.80;39.70;;;;;;5031665;28;20465;-71
2022/08/25 13:09:06;;;;;;;5.47;4.97;;;40.90;39.40;;;;;;5035005;28;21113;-70
2022/08/25 13:12:06;;;;;;;5.87;5.37;;;40.90;39.60;;;;;;5036333;28;20461;-70
2022/08/25 13:14:41;;;;;;;6.20;5.70;;;40.70;39.60;;;;;;5040051;28;20465;-73
2022/08/25 13:17:07;;;;;;;5.50;5.10;;;40.80;39.80;;;;;;5037153;28;20953;-72
2022/08/25 13:19:34;;;;;;;5.30;4.90;;;40.80;39.80;;;;;;5042211;28;20448;-72
2022/08/25 13:22:08;;;;;;;5.70;5.20;;;40.50;39.70;;;;;;5042228;28;20476;-72